createdAt,value
2022-10-26T00:01:15.221Z,80.93
2022-10-26T00:03:44.798Z,81.00
2022-10-26T00:06:15.675Z,81.41
2022-10-26T00:08:43.010Z,81.00
2022-10-26T00:11:11.481Z,81.24
2022-10-26T00:13:40.251Z,81.36
2022-10-26T00:16:14.647Z,81.07
2022-10-26T00:18:42.319Z,81.16
2022-10-26T00:21:11.220Z,81.18
2022-10-26T00:23:38.308Z,81.13
2022-10-26T00:26:05.923Z,80.94
2022-10-26T00:28:33.025Z,81.42
2022-10-26T00:31:06.799Z,81.38
2022-10-26T00:33:34.320Z,81.62
2022-10-26T00:36:01.356Z,81.50
2022-10-26T00:38:28.382Z,81.06
2022-10-26T00:40:55.363Z,81.29
2022-10-26T00:43:22.200Z,80.93
2022-10-26T00:45:55.437Z,80.82
2022-10-26T00:48:30.007Z,80.59
2022-10-26T00:51:02.080Z,80.42
2022-10-26T00:53:30.099Z,80.60
2022-10-26T00:55:58.116Z,80.50
2022-10-26T00:58:26.092Z,80.54
2022-10-26T01:00:53.646Z,80.76
2022-10-26T01:03:25.035Z,80.53
2022-10-26T01:05:57.494Z,80.67
2022-10-26T01:08:28.071Z,80.51
2022-10-26T01:10:58.063Z,80.41
2022-10-26T01:13:28.510Z,80.38
2022-10-26T01:16:38.377Z,80.47
2022-10-26T01:19:32.347Z,80.79
2022-10-26T01:22:28.197Z,80.61
2022-10-26T01:25:19.123Z,80.71
2022-10-26T01:27:49.087Z,80.69
2022-10-26T01:30:31.281Z,80.71
2022-10-26T01:33:18.754Z,80.97
2022-10-26T01:36:04.027Z,80.91
2022-10-26T01:38:44.278Z,80.50
2022-10-26T01:41:29.530Z,80.80
2022-10-26T01:44:03.070Z,80.71
2022-10-26T01:46:39.806Z,80.67
2022-10-26T01:49:11.706Z,81.04
2022-10-26T01:51:43.023Z,81.22
2022-10-26T01:54:10.291Z,80.88
2022-10-26T01:56:41.034Z,81.05
2022-10-26T01:59:40.946Z,80.67
2022-10-26T02:02:33.511Z,80.88
2022-10-26T02:05:15.689Z,80.92
2022-10-26T02:08:04.926Z,80.86
2022-10-26T02:11:12.487Z,80.46
2022-10-26T02:13:56.027Z,80.88
2022-10-26T02:16:58.271Z,80.79
2022-10-26T02:19:39.563Z,80.84
2022-10-26T02:22:10.803Z,81.03
2022-10-26T02:24:39.874Z,80.64
2022-10-26T02:27:11.438Z,80.66
2022-10-26T02:29:40.355Z,80.87
2022-10-26T02:32:08.951Z,80.80
2022-10-26T02:34:38.080Z,80.92
2022-10-26T02:37:06.806Z,80.85
2022-10-26T02:39:36.244Z,80.46
2022-10-26T02:42:07.128Z,80.63
2022-10-26T02:44:50.249Z,80.27
2022-10-26T02:47:19.352Z,80.47
2022-10-26T02:49:46.765Z,80.65
2022-10-26T02:52:46.926Z,80.94
2022-10-26T02:55:34.725Z,81.04
2022-10-26T02:58:09.938Z,81.05
2022-10-26T03:00:36.923Z,80.97
2022-10-26T03:03:05.187Z,81.21
2022-10-26T03:05:33.107Z,81.08
2022-10-26T03:08:00.614Z,81.35
2022-10-26T03:10:27.758Z,81.35
2022-10-26T03:12:54.733Z,81.32
2022-10-26T03:15:21.984Z,81.00
2022-10-26T03:17:49.261Z,81.41
2022-10-26T03:20:16.481Z,80.94
2022-10-26T03:22:43.529Z,81.03
2022-10-26T03:25:10.575Z,81.09
2022-10-26T03:27:37.965Z,81.07
2022-10-26T03:30:05.727Z,81.14
2022-10-26T03:32:32.757Z,81.12
2022-10-26T03:34:59.815Z,80.74
2022-10-26T03:37:27.303Z,80.85
2022-10-26T03:39:54.260Z,80.96
2022-10-26T03:42:21.222Z,81.08
2022-10-26T03:44:48.338Z,80.66
2022-10-26T03:47:15.286Z,80.86
2022-10-26T03:49:42.296Z,81.08
2022-10-26T03:52:09.318Z,81.24
2022-10-26T03:54:36.295Z,81.28
2022-10-26T03:57:03.214Z,81.10
2022-10-26T03:59:30.180Z,81.15
2022-10-26T04:01:58.001Z,81.39
2022-10-26T04:04:25.474Z,81.41
2022-10-26T04:06:52.564Z,81.30
2022-10-26T04:09:19.523Z,81.76
2022-10-26T04:11:46.444Z,81.28
2022-10-26T04:14:13.376Z,81.58
2022-10-26T04:16:40.389Z,81.31
2022-10-26T04:19:07.405Z,81.56
2022-10-26T04:21:35.347Z,81.49
2022-10-26T04:24:02.834Z,81.95
2022-10-26T04:26:29.759Z,81.84
2022-10-26T04:28:56.750Z,81.84
2022-10-26T04:31:24.595Z,81.65
2022-10-26T04:33:51.513Z,81.64
2022-10-26T04:36:18.417Z,82.31
2022-10-26T04:38:45.453Z,81.69
2022-10-26T04:41:12.387Z,81.73
2022-10-26T04:43:39.333Z,81.83
2022-10-26T04:46:06.319Z,81.42
2022-10-26T04:48:33.432Z,81.41
2022-10-26T04:51:01.175Z,81.34
2022-10-26T04:53:28.622Z,81.82
2022-10-26T04:56:03.142Z,81.98
2022-10-26T04:58:30.533Z,82.11
2022-10-26T05:00:57.525Z,81.62
2022-10-26T05:03:24.501Z,81.85
2022-10-26T05:05:51.530Z,81.87
2022-10-26T05:08:18.479Z,81.90
2022-10-26T05:10:50.282Z,81.89
2022-10-26T05:13:17.732Z,81.43
2022-10-26T05:15:44.792Z,81.82
2022-10-26T05:18:11.966Z,81.75
2022-10-26T05:20:38.981Z,81.77
2022-10-26T05:23:10.370Z,81.84
2022-10-26T05:25:38.783Z,81.64
2022-10-26T05:28:09.704Z,81.69
2022-10-26T05:30:37.790Z,82.03
2022-10-26T05:33:05.783Z,81.90
2022-10-26T05:35:33.330Z,81.73
2022-10-26T05:38:06.256Z,81.88
2022-10-26T05:40:33.367Z,82.04
2022-10-26T05:43:02.048Z,81.90
2022-10-26T05:45:29.500Z,81.65
2022-10-26T05:47:58.720Z,81.63
2022-10-26T05:50:29.350Z,81.39
2022-10-26T05:52:56.262Z,81.67
2022-10-26T05:55:23.963Z,81.74
2022-10-26T05:57:51.791Z,81.65
2022-10-26T06:00:23.028Z,81.10
2022-10-26T06:06:05.317Z,81.46
2022-10-26T06:08:34.811Z,81.13
2022-10-26T06:11:03.024Z,81.54
2022-10-26T06:13:30.439Z,81.32
2022-10-26T06:16:14.407Z,81.21
2022-10-26T06:19:02.867Z,81.48
2022-10-26T06:22:01.436Z,81.34
2022-10-26T06:25:22.438Z,81.85
2022-10-26T06:28:14.874Z,81.48
2022-10-26T06:30:41.950Z,81.51
2022-10-26T06:33:24.931Z,81.54
2022-10-26T06:36:16.188Z,81.05
2022-10-26T06:38:44.633Z,81.17
2022-10-26T06:41:16.285Z,81.41
2022-10-26T06:43:43.700Z,82.03
2022-10-26T06:46:17.137Z,81.93
2022-10-26T06:49:24.759Z,81.92
2022-10-26T06:51:58.435Z,81.94
2022-10-26T06:54:53.307Z,81.82
2022-10-26T06:57:34.880Z,82.20
2022-10-26T07:00:21.464Z,81.84
2022-10-26T07:02:50.093Z,81.78
2022-10-26T07:05:17.815Z,82.31
2022-10-26T07:07:47.950Z,82.54
2022-10-26T07:10:15.817Z,82.28
2022-10-26T07:12:42.811Z,82.02
2022-10-26T07:15:10.330Z,81.81
2022-10-26T07:17:49.102Z,82.33
2022-10-26T07:20:19.695Z,82.03
2022-10-26T07:22:56.453Z,81.70
2022-10-26T07:25:25.541Z,81.89
2022-10-26T07:27:52.565Z,82.16
2022-10-26T07:30:19.584Z,82.07
2022-10-26T07:32:46.708Z,81.85
2022-10-26T07:35:14.583Z,81.88
2022-10-26T07:37:41.517Z,82.30
2022-10-26T07:40:08.843Z,82.52
2022-10-26T07:42:37.053Z,82.25
2022-10-26T07:45:04.815Z,81.66
2022-10-26T07:47:31.733Z,82.12
2022-10-26T07:49:58.681Z,82.11
2022-10-26T07:52:25.628Z,82.28
2022-10-26T07:54:52.606Z,82.05
2022-10-26T07:57:19.637Z,82.04
2022-10-26T07:59:46.721Z,82.84
2022-10-26T08:02:13.866Z,83.26
2022-10-26T08:04:43.874Z,83.65
2022-10-26T08:07:10.842Z,83.27
2022-10-26T08:09:37.865Z,83.36
2022-10-26T08:12:05.207Z,83.62
2022-10-26T08:14:32.127Z,84.06
2022-10-26T08:16:59.050Z,83.86
2022-10-26T08:19:26.152Z,83.60
2022-10-26T08:21:53.093Z,84.32
2022-10-26T08:24:20.017Z,84.31
2022-10-26T08:26:46.991Z,84.86
2022-10-26T08:29:13.999Z,84.93
2022-10-26T08:31:40.923Z,84.64
2022-10-26T08:34:08.059Z,84.61
2022-10-26T08:36:35.054Z,84.51
2022-10-26T08:39:01.983Z,84.41
2022-10-26T08:41:52.715Z,84.51
2022-10-26T08:44:35.160Z,84.76
2022-10-26T08:47:20.735Z,84.56
2022-10-26T08:50:05.065Z,84.43
2022-10-26T08:52:51.258Z,84.80
2022-10-26T08:55:28.925Z,84.32
2022-10-26T08:57:56.739Z,84.53
2022-10-26T09:00:25.979Z,84.73
2022-10-26T09:02:54.059Z,84.27
2022-10-26T09:05:41.026Z,84.99
2022-10-26T09:08:31.325Z,85.10
2022-10-26T09:11:08.645Z,84.47
2022-10-26T09:13:45.323Z,84.74
2022-10-26T09:16:36.432Z,84.51
2022-10-26T09:19:24.041Z,84.22
2022-10-26T09:22:13.662Z,84.30
2022-10-26T09:24:56.222Z,84.15
2022-10-26T09:27:32.586Z,84.10
2022-10-26T09:30:12.292Z,83.91
2022-10-26T09:32:45.117Z,83.47
2022-10-26T09:35:42.200Z,83.67
2022-10-26T09:38:43.380Z,83.81
2022-10-26T09:41:36.934Z,84.33
2022-10-26T09:44:44.899Z,84.99
2022-10-26T09:47:38.165Z,84.89
2022-10-26T09:50:28.135Z,84.57
2022-10-26T09:52:55.199Z,83.91
2022-10-26T09:55:22.968Z,84.10
2022-10-26T09:57:56.321Z,84.31
2022-10-26T10:00:27.229Z,83.23
2022-10-26T10:02:56.950Z,84.15
2022-10-26T10:05:50.264Z,83.93
2022-10-26T10:08:23.276Z,83.50
2022-10-26T10:11:12.520Z,84.20
2022-10-26T10:13:45.566Z,82.69
2022-10-26T10:16:24.101Z,82.11
2022-10-26T10:18:59.933Z,82.21
2022-10-26T10:21:45.506Z,83.62
2022-10-26T10:24:33.834Z,83.16
2022-10-26T10:27:16.944Z,82.98
2022-10-26T10:30:22.520Z,83.70
2022-10-26T10:33:13.461Z,84.24
2022-10-26T10:35:50.675Z,83.62
2022-10-26T10:38:20.913Z,83.48
2022-10-26T10:41:03.735Z,83.77
2022-10-26T10:43:30.994Z,82.86
2022-10-26T10:45:59.870Z,83.63
2022-10-26T10:48:29.335Z,82.79
2022-10-26T10:51:12.246Z,81.51
2022-10-26T10:53:56.696Z,82.22
2022-10-26T10:56:38.523Z,81.32
2022-10-26T10:59:30.740Z,80.66
2022-10-26T11:02:44.723Z,79.92
2022-10-26T11:05:40.196Z,79.50
2022-10-26T11:08:29.055Z,79.28
2022-10-26T11:11:18.747Z,80.87
2022-10-26T11:13:51.537Z,80.44
2022-10-26T11:16:37.411Z,79.48
2022-10-26T11:19:27.207Z,81.09
2022-10-26T11:21:55.605Z,80.12
2022-10-26T11:24:45.442Z,79.79
2022-10-26T11:27:20.053Z,80.79
2022-10-26T11:30:15.224Z,78.49
2022-10-26T11:32:50.328Z,79.62
2022-10-26T11:35:36.778Z,79.31
2022-10-26T11:38:56.400Z,78.37
2022-10-26T11:42:00.903Z,79.16
2022-10-26T11:44:43.294Z,79.62
2022-10-26T11:47:19.490Z,78.41
2022-10-26T11:50:04.785Z,77.94
2022-10-26T11:53:00.832Z,78.88
2022-10-26T11:55:29.372Z,80.02
2022-10-26T11:57:57.944Z,80.02
2022-10-26T12:00:26.959Z,79.59
2022-10-26T12:03:10.459Z,80.11
2022-10-26T12:05:40.301Z,79.83
2022-10-26T12:08:19.543Z,80.37
2022-10-26T12:13:58.960Z,79.39
2022-10-26T12:17:06.549Z,80.96
2022-10-26T12:20:04.360Z,78.43
2022-10-26T12:22:37.449Z,80.11
2022-10-26T12:25:15.116Z,80.11
2022-10-26T12:27:42.336Z,80.11
2022-10-26T12:30:23.833Z,79.79
2022-10-26T12:33:05.173Z,79.77
2022-10-26T12:35:44.224Z,79.84
2022-10-26T12:38:47.614Z,79.29
2022-10-26T12:41:24.683Z,81.02
2022-10-26T12:43:56.135Z,80.54
2022-10-26T12:46:26.022Z,81.41
2022-10-26T12:48:59.868Z,80.58
2022-10-26T12:51:26.718Z,78.93
2022-10-26T12:54:05.611Z,79.41
2022-10-26T12:56:38.045Z,80.20
2022-10-26T12:59:27.215Z,79.18
2022-10-26T13:02:43.757Z,79.36
2022-10-26T13:05:19.983Z,79.19
2022-10-26T13:07:47.159Z,79.46
2022-10-26T13:10:14.044Z,79.44
2022-10-26T13:12:56.947Z,77.33
2022-10-26T13:15:29.259Z,79.33
2022-10-26T13:18:10.093Z,79.44
2022-10-26T13:20:52.033Z,79.15
2022-10-26T13:23:29.252Z,78.62
2022-10-26T13:26:12.772Z,78.90
2022-10-26T13:28:39.765Z,78.84
2022-10-26T13:31:24.277Z,80.15
2022-10-26T13:33:56.122Z,78.63
2022-10-26T13:36:45.238Z,79.19
2022-10-26T13:39:40.338Z,76.86
2022-10-26T13:42:13.672Z,78.57
2022-10-26T13:44:45.669Z,78.81
2022-10-26T13:47:24.100Z,78.06
2022-10-26T13:49:55.475Z,78.49
2022-10-26T13:52:38.252Z,80.29
2022-10-26T13:55:28.629Z,80.00
2022-10-26T13:58:35.964Z,78.28
2022-10-26T14:01:18.258Z,78.79
2022-10-26T14:03:45.381Z,79.36
2022-10-26T14:06:38.975Z,80.66
2022-10-26T14:09:17.604Z,79.38
2022-10-26T14:11:50.081Z,79.76
2022-10-26T14:14:34.109Z,80.21
2022-10-26T14:17:01.561Z,77.87
2022-10-26T14:19:39.771Z,77.08
2022-10-26T14:22:07.590Z,76.50
2022-10-26T14:24:47.229Z,77.37
2022-10-26T14:27:21.418Z,77.08
2022-10-26T14:30:16.861Z,76.05
2022-10-26T14:32:37.048Z,76.07
2022-10-26T14:35:04.380Z,77.57
2022-10-26T14:37:40.057Z,74.89
2022-10-26T14:40:13.586Z,77.15
2022-10-26T14:42:44.419Z,75.42
2022-10-26T14:45:49.292Z,75.43
2022-10-26T14:48:32.201Z,74.36
2022-10-26T14:50:59.613Z,76.33
2022-10-26T14:53:37.705Z,75.14
2022-10-26T14:56:24.499Z,74.72
2022-10-26T14:58:52.902Z,75.60
2022-10-26T15:01:23.125Z,75.31
2022-10-26T15:04:01.426Z,76.82
2022-10-26T15:06:28.303Z,76.27
2022-10-26T15:09:00.361Z,74.73
2022-10-26T15:11:29.431Z,76.35
2022-10-26T15:13:58.698Z,75.88
2022-10-26T15:16:29.466Z,77.26
2022-10-26T15:19:06.739Z,75.53
2022-10-26T15:21:42.852Z,76.01
2022-10-26T15:24:20.927Z,75.29
2022-10-26T15:26:48.233Z,75.09
2022-10-26T15:29:38.958Z,77.24
2022-10-26T15:32:31.889Z,76.91
2022-10-26T15:35:17.707Z,76.81
2022-10-26T15:37:48.974Z,76.76
2022-10-26T15:40:16.606Z,76.29
2022-10-26T15:42:45.531Z,75.77
2022-10-26T15:45:24.065Z,75.63
2022-10-26T15:47:53.163Z,75.57
2022-10-26T15:50:23.866Z,76.76
2022-10-26T15:53:00.494Z,75.21
2022-10-26T15:55:30.130Z,75.64
2022-10-26T15:57:57.182Z,75.84
2022-10-26T16:00:24.113Z,75.74
2022-10-26T16:02:51.115Z,75.35
2022-10-26T16:05:18.217Z,75.53
2022-10-26T16:07:47.817Z,75.10
2022-10-26T16:10:23.347Z,75.93
2022-10-26T16:12:51.475Z,74.74
2022-10-26T16:15:22.772Z,74.73
2022-10-26T16:17:50.920Z,74.38
2022-10-26T16:20:24.288Z,74.11
2022-10-26T16:22:53.401Z,74.41
2022-10-26T16:25:25.667Z,74.06
2022-10-26T16:27:54.992Z,74.13
2022-10-26T16:30:24.870Z,74.27
2022-10-26T16:32:55.169Z,74.23
2022-10-26T16:35:22.154Z,74.42
2022-10-26T16:37:49.300Z,74.22
2022-10-26T16:40:16.293Z,74.53
2022-10-26T16:42:44.565Z,74.36
2022-10-26T16:45:16.021Z,74.48
2022-10-26T16:47:43.039Z,74.53
2022-10-26T16:50:12.625Z,74.52
2022-10-26T16:52:40.077Z,74.76
2022-10-26T16:55:09.055Z,75.00
2022-10-26T16:57:36.986Z,74.74
2022-10-26T17:00:06.925Z,74.97
2022-10-26T17:02:34.011Z,75.00
2022-10-26T17:05:04.233Z,74.97
2022-10-26T17:07:36.815Z,74.72
2022-10-26T17:10:04.499Z,74.83
2022-10-26T17:12:31.874Z,74.91
2022-10-26T17:15:00.481Z,74.78
2022-10-26T17:17:27.524Z,74.70
2022-10-26T17:19:54.659Z,75.02
2022-10-26T17:22:21.785Z,75.07
2022-10-26T17:24:48.751Z,74.97
2022-10-26T17:27:17.327Z,74.97
2022-10-26T17:29:44.441Z,75.23
2022-10-26T17:32:11.391Z,74.99
2022-10-26T17:34:38.383Z,75.20
2022-10-26T17:37:05.381Z,75.24
2022-10-26T17:39:32.387Z,75.04
2022-10-26T17:41:59.376Z,75.12
2022-10-26T17:44:26.424Z,74.84
2022-10-26T17:46:53.383Z,75.33
2022-10-26T17:49:24.795Z,75.35
2022-10-26T17:51:53.794Z,75.06
2022-10-26T17:54:20.753Z,75.37
2022-10-26T17:56:47.785Z,75.60
2022-10-26T17:59:14.771Z,75.25
2022-10-26T18:01:43.112Z,75.35
2022-10-26T18:04:10.279Z,75.26
2022-10-26T18:06:37.293Z,75.44
2022-10-26T18:09:04.522Z,75.25
2022-10-26T18:14:03.940Z,75.55
2022-10-26T18:16:31.863Z,75.49
2022-10-26T18:19:04.210Z,75.44
2022-10-26T18:21:34.847Z,75.30
2022-10-26T18:24:02.221Z,75.47
2022-10-26T18:26:32.873Z,75.51
2022-10-26T18:29:01.036Z,75.35
2022-10-26T18:31:30.731Z,75.35
2022-10-26T18:34:03.051Z,75.40
2022-10-26T18:36:30.433Z,75.37
2022-10-26T18:38:57.946Z,75.29
2022-10-26T18:41:26.053Z,75.59
2022-10-26T18:43:58.633Z,75.66
2022-10-26T18:46:29.256Z,75.32
2022-10-26T18:48:56.887Z,74.93
2022-10-26T18:51:31.907Z,75.13
2022-10-26T18:54:00.099Z,75.73
2022-10-26T18:56:27.302Z,75.54
2022-10-26T18:58:58.697Z,75.54
2022-10-26T19:01:34.689Z,75.78
2022-10-26T19:04:05.173Z,75.67
2022-10-26T19:06:38.859Z,76.05
2022-10-26T19:09:07.456Z,75.87
2022-10-26T19:11:35.234Z,75.83
2022-10-26T19:14:02.581Z,76.27
2022-10-26T19:16:45.367Z,76.09
2022-10-26T19:19:14.378Z,76.08
2022-10-26T19:21:41.358Z,75.60
2022-10-26T19:24:17.389Z,75.39
2022-10-26T19:26:46.895Z,75.78
2022-10-26T19:29:16.736Z,75.55
2022-10-26T19:31:45.994Z,75.91
2022-10-26T19:34:15.219Z,75.98
2022-10-26T19:36:44.841Z,75.79
2022-10-26T19:39:17.046Z,76.13
2022-10-26T19:41:45.811Z,76.12
2022-10-26T19:44:14.279Z,76.10
2022-10-26T19:46:43.125Z,76.40
2022-10-26T19:49:10.232Z,76.30
2022-10-26T19:51:37.242Z,76.22
2022-10-26T19:54:06.666Z,76.06
2022-10-26T19:56:36.027Z,75.95
2022-10-26T19:59:03.374Z,76.44
2022-10-26T20:01:31.547Z,76.40
2022-10-26T20:03:58.732Z,76.25
2022-10-26T20:06:28.671Z,76.10
2022-10-26T20:08:55.639Z,76.56
2022-10-26T20:11:22.683Z,76.49
2022-10-26T20:13:49.692Z,76.38
2022-10-26T20:16:17.787Z,76.19
2022-10-26T20:18:47.925Z,76.78
2022-10-26T20:21:17.639Z,77.55
2022-10-26T20:23:45.003Z,77.36
2022-10-26T20:26:19.616Z,77.15
2022-10-26T20:28:50.809Z,77.73
2022-10-26T20:31:17.794Z,77.91
2022-10-26T20:33:44.840Z,77.55
2022-10-26T20:36:11.952Z,77.97
2022-10-26T20:38:40.046Z,77.59
2022-10-26T20:41:12.022Z,78.11
2022-10-26T20:43:41.463Z,78.33
2022-10-26T20:46:23.781Z,78.02
2022-10-26T20:48:53.677Z,77.55
2022-10-26T20:51:38.532Z,77.60
2022-10-26T20:54:17.725Z,76.74
2022-10-26T20:56:45.678Z,77.97
2022-10-26T20:59:36.090Z,78.56
2022-10-26T21:02:04.223Z,78.44
2022-10-26T21:04:31.420Z,78.20
2022-10-26T21:06:58.374Z,78.26
2022-10-26T21:09:26.124Z,78.63
2022-10-26T21:11:58.272Z,77.93
2022-10-26T21:14:25.251Z,78.11
2022-10-26T21:16:52.166Z,77.91
2022-10-26T21:19:19.552Z,77.66
2022-10-26T21:21:46.657Z,77.86
2022-10-26T21:24:13.817Z,77.42
2022-10-26T21:26:40.792Z,78.19
2022-10-26T21:29:07.802Z,78.37
2022-10-26T21:31:34.867Z,78.57
2022-10-26T21:34:02.907Z,78.63
2022-10-26T21:36:29.941Z,79.49
2022-10-26T21:38:56.904Z,79.24
2022-10-26T21:44:03.200Z,78.79
2022-10-26T21:46:40.246Z,78.42
2022-10-26T21:49:07.294Z,78.16
2022-10-26T21:51:35.126Z,78.39
2022-10-26T21:54:03.628Z,78.00
2022-10-26T21:56:30.566Z,77.87
2022-10-26T21:59:00.330Z,77.89
2022-10-26T22:01:27.761Z,78.45
2022-10-26T22:03:54.995Z,78.33
2022-10-26T22:06:22.243Z,78.22
2022-10-26T22:08:49.366Z,78.33
2022-10-26T22:11:19.658Z,78.86
2022-10-26T22:13:48.643Z,78.69
2022-10-26T22:16:20.830Z,78.37
2022-10-26T22:18:49.166Z,78.66
2022-10-26T22:21:18.380Z,78.92
2022-10-26T22:23:45.863Z,79.13
2022-10-26T22:26:25.140Z,79.29
2022-10-26T22:28:55.399Z,79.54
2022-10-26T22:31:32.503Z,80.35
2022-10-26T22:34:07.831Z,80.55
2022-10-26T22:36:35.726Z,80.00
2022-10-26T22:39:03.452Z,80.41
2022-10-26T22:41:30.545Z,79.99
2022-10-26T22:43:57.552Z,79.70
2022-10-26T22:46:27.762Z,80.32
2022-10-26T22:49:00.412Z,79.88
2022-10-26T22:51:33.675Z,79.77
2022-10-26T22:54:03.490Z,80.43
2022-10-26T22:56:32.387Z,80.29
2022-10-26T22:59:00.006Z,80.41
2022-10-26T23:01:33.933Z,80.45
2022-10-26T23:04:00.934Z,80.92
2022-10-26T23:06:30.525Z,80.92
2022-10-26T23:08:58.097Z,81.11
2022-10-26T23:11:28.102Z,81.19
2022-10-26T23:13:58.023Z,81.38
2022-10-26T23:16:25.916Z,81.64
2022-10-26T23:18:55.536Z,81.14
2022-10-26T23:23:51.959Z,80.93
2022-10-26T23:26:23.553Z,81.00
2022-10-26T23:28:50.899Z,80.91
2022-10-26T23:31:25.653Z,81.03
2022-10-26T23:33:54.909Z,80.49
2022-10-26T23:36:22.739Z,80.68
2022-10-26T23:38:49.697Z,81.08
2022-10-26T23:41:16.709Z,81.22
2022-10-26T23:43:43.670Z,80.81
2022-10-26T23:46:10.637Z,80.66
2022-10-26T23:48:37.648Z,81.24
2022-10-26T23:51:04.830Z,81.16
2022-10-26T23:53:31.820Z,80.73
2022-10-26T23:55:58.871Z,81.08
2022-10-26T23:58:25.849Z,80.93
